Main page
Satellite images 15-day forecastsClimateMarine weather Cyclones Lightning AirportsFAQ Newsletter About
Weather : Europe Africa North America South America Asia Australia-Oceania Others
Languages Contact

London-Heathrow, England

latitude: 51-29N, longitude: 000-27W, elevation: 24 m


METAR: EGLL 252220Z 23011KT 9999 BKN037 13/09 Q1021 NOSIG
TAF: EGLL 251659Z 2518/2624 23008KT 9999 FEW020 SCT040

Time: 23:49 (22:49 UTC)

Current weather observation

The report was made 29 minutes ago, at 22:20 UTC
Wind 11 kt from the Southwest
Temperature 13°C
Humidity 77%
Pressure 1021 hPa
Visibility 10 km or more
Broken clouds at a height of 3700 ft

Change units

Forecast

The report was made 5 hours and 50 minutes ago, at 16:59 UTC
Forecast valid from 25 at 18 UTC to 26 at 24 UTC
Wind 8 kt from the Southwest
Visibility 10 km or more
Few clouds at a height of 2000 ft
Scattered clouds at a height of 4000 ft
The information on this site is subject to a disclaimer
Weather : Europe Africa North America South America Asia Australia-Oceania Others
Satellite images 15-day forecastsClimateMarine weather Cyclones Lightning AirportsFAQ Languages Contact Newsletter About